Time;durP1;ratioP1;P1;durP2;ratioP2;P2;SDS_P1;SDS_P2;PMS_P1;PMS_P2;Temp;Humidity;BMP_temperature;BMP_pressure;BME280_temperature;BME280_humidity;BME280_pressure;Samples;Min_cycle;Max_cycle;Signal;HPM_P1;HPM_P2
2023/06/22 00:00:01;;;;;;;;;;;;;;;21.06;69.53;93143.00;2058113;69;20049;-83
2023/06/22 00:02:26;;;;;;;;;;;;;;;21.02;69.21;93123.56;2061310;69;20174;-83
2023/06/22 00:04:52;;;;;;;;;;;;;;;21.06;69.22;93100.78;2058106;69;20065;-82
2023/06/22 00:07:18;;;;;;;;;;;;;;;20.99;69.21;93104.16;2056513;69;20053;-82
2023/06/22 00:09:43;;;;;;;;;;;;;;;21.02;68.99;93106.41;2059302;69;20060;-82
2023/06/22 00:12:09;;;;;;;;;;;;;;;21.04;69.40;93100.00;2062139;69;20128;-82
2023/06/22 00:14:36;;;;;;;;;;;;;;;21.09;69.09;93118.75;2058447;69;20489;-81
2023/06/22 00:17:02;;;;;;;;;;;;;;;20.91;69.73;93109.66;2058254;69;20054;-82
2023/06/22 00:19:28;;;;;;;;;;;;;;;20.90;69.79;93108.94;2058634;69;20096;-81
2023/06/22 00:22:00;;;;;;;;;;;;;;;20.88;70.00;93099.53;2059636;69;20498;-79
2023/06/22 00:24:29;;;;;;;;;;;;;;;20.96;69.21;93094.78;2059752;69;20162;-80
2023/06/22 00:26:54;;;;;;;;;;;;;;;20.84;69.72;93088.69;2057490;69;20061;-81
2023/06/22 00:29:20;;;;;;;;;;;;;;;20.52;71.48;93097.78;2059079;69;20053;-81
2023/06/22 00:31:45;;;;;;;;;;;;;;;20.71;70.48;93106.91;2054796;69;20097;-80
2023/06/22 00:34:11;;;;;;;;;;;;;;;20.72;70.50;93102.66;2058193;69;20525;-81
2023/06/22 00:36:36;;;;;;;;;;;;;;;20.79;70.09;93098.56;2057772;69;20058;-80
2023/06/22 00:39:03;;;;;;;;;;;;;;;20.94;69.83;93102.59;2055277;69;20117;-80
2023/06/22 00:41:30;;;;;;;;;;;;;;;21.02;69.88;93109.25;2058359;69;20486;-81
2023/06/22 00:43:56;;;;;;;;;;;;;;;21.04;69.25;93111.47;2056788;69;20049;-81
2023/06/22 00:46:23;;;;;;;;;;;;;;;20.35;72.25;93089.38;2058350;69;20146;-81
2023/06/22 00:48:48;;;;;;;;;;;;;;;20.59;70.76;93095.13;2058375;69;20066;-80
2023/06/22 00:51:14;;;;;;;;;;;;;;;20.59;71.18;93080.81;2061537;69;20525;-79
2023/06/22 00:53:40;;;;;;;;;;;;;;;20.54;70.63;93092.13;2061134;69;20061;-80
2023/06/22 00:56:08;;;;;;;;;;;;;;;20.51;70.52;93081.31;2061712;69;20090;-80
2023/06/22 00:58:41;;;;;;;;;;;;;;;20.52;70.73;93063.47;2058157;69;20079;-82
2023/06/22 01:01:06;;;;;;;;;;;;;;;19.34;75.77;93068.25;2062785;69;20050;-81
2023/06/22 01:03:32;;;;;;;;;;;;;;;19.61;75.06;93075.63;2063362;69;20534;-81
2023/06/22 01:06:02;;;;;;;;;;;;;;;20.12;72.21;93062.97;2053506;69;20540;-83
2023/06/22 01:08:41;;;;;;;;;;;;;;;19.77;74.56;93073.28;2058186;69;20042;-82
2023/06/22 01:11:21;;;;;;;;;;;;;;;20.13;72.24;93072.25;2055433;69;20046;-82
2023/06/22 01:14:03;;;;;;;;;;;;;;;20.14;72.07;93070.84;2059163;69;20066;-78
2023/06/22 01:16:32;;;;;;;;;;;;;;;20.13;71.83;93067.28;2058599;69;20073;-82
2023/06/22 01:19:01;;;;;;;;;;;;;;;20.12;71.99;93059.38;2051741;70;20482;-81
2023/06/22 01:21:28;;;;;;;;;;;;;;;20.00;72.12;93062.56;2054181;69;20050;-81
2023/06/22 01:24:00;;;;;;;;;;;;;;;20.08;72.06;93067.81;2052829;70;20062;-82
2023/06/22 01:26:27;;;;;;;;;;;;;;;20.15;71.39;93060.88;2054769;69;20133;-81
2023/06/22 01:28:57;;;;;;;;;;;;;;;20.12;71.46;93056.50;2055023;70;20117;-82
2023/06/22 01:31:24;;;;;;;;;;;;;;;20.05;71.65;93061.28;2054999;69;20164;-81
2023/06/22 01:33:52;;;;;;;;;;;;;;;20.12;72.00;93067.94;2052041;69;20181;-81
2023/06/22 01:36:19;;;;;;;;;;;;;;;20.05;71.44;93059.16;2057886;69;20060;-81
2023/06/22 01:38:46;;;;;;;;;;;;;;;19.99;71.83;93053.28;2054858;69;20085;-81
2023/06/22 01:41:12;;;;;;;;;;;;;;;19.93;72.33;93053.09;2058491;69;20128;-80
2023/06/22 01:43:38;;;;;;;;;;;;;;;19.91;72.16;93047.28;2058066;69;20455;-81
2023/06/22 01:46:04;;;;;;;;;;;;;;;19.96;72.32;93062.44;2058459;69;20482;-80
2023/06/22 01:48:30;;;;;;;;;;;;;;;20.09;72.69;93052.84;2057777;69;20046;-80
2023/06/22 01:50:56;;;;;;;;;;;;;;;19.59;73.71;93057.66;2056106;69;20147;-81
2023/06/22 01:53:26;;;;;;;;;;;;;;;19.67;73.77;93050.09;2058030;69;20054;-82
2023/06/22 01:55:52;;;;;;;;;;;;;;;19.79;72.11;93049.75;2058170;69;20141;-81
2023/06/22 01:58:20;;;;;;;;;;;;;;;19.83;72.20;93052.75;2057826;69;20054;-82
2023/06/22 02:00:59;;;;;;;;;;;;;;;19.85;71.97;93060.66;2052238;69;20547;-82
2023/06/22 02:03:31;;;;;;;;;;;;;;;19.85;71.57;93063.53;2057909;69;20061;-83
2023/06/22 02:06:01;;;;;;;;;;;;;;;19.70;72.54;93062.31;2056224;69;20092;-81
2023/06/22 02:08:30;;;;;;;;;;;;;;;19.60;72.50;93059.84;2051785;69;20486;-83
2023/06/22 02:10:59;;;;;;;;;;;;;;;19.66;72.87;93070.78;2058352;69;20065;-82
2023/06/22 02:13:26;;;;;;;;;;;;;;;19.72;72.21;93054.56;2060952;69;20065;-81
2023/06/22 02:15:52;;;;;;;;;;;;;;;19.64;72.43;93050.69;2058628;69;20081;-84
2023/06/22 02:18:17;;;;;;;;;;;;;;;19.67;72.47;93058.66;2058169;69;20570;-83
2023/06/22 02:20:43;;;;;;;;;;;;;;;19.69;72.29;93055.16;2058651;69;20046;-81
2023/06/22 02:23:09;;;;;;;;;;;;;;;19.59;72.80;93052.66;2061436;69;20144;-81
2023/06/22 02:25:35;;;;;;;;;;;;;;;19.65;71.69;93066.44;2061227;69;20057;-80
2023/06/22 02:28:01;;;;;;;;;;;;;;;19.65;72.08;93058.59;2061058;69;20058;-80
2023/06/22 02:30:26;;;;;;;;;;;;;;;19.45;73.26;93066.47;2060402;69;20065;-82
2023/06/22 02:32:58;;;;;;;;;;;;;;;19.51;73.14;93069.50;2061924;69;20094;-81
2023/06/22 02:35:31;;;;;;;;;;;;;;;19.48;73.25;93070.88;2058226;69;20053;-81
2023/06/22 02:37:57;;;;;;;;;;;;;;;19.30;73.99;93071.69;2058144;69;20160;-80
2023/06/22 02:40:25;;;;;;;;;;;;;;;19.50;73.16;93085.91;2061241;69;20053;-80
2023/06/22 02:42:50;;;;;;;;;;;;;;;19.44;73.42;93059.31;2061439;69;20072;-80
2023/06/22 02:45:16;;;;;;;;;;;;;;;19.48;72.68;93065.16;2061699;69;20075;-80
2023/06/22 02:47:42;;;;;;;;;;;;;;;19.37;73.45;93058.34;2061383;69;20069;-80
2023/06/22 02:50:10;;;;;;;;;;;;;;;19.14;74.63;93067.53;2055502;69;20374;-80
2023/06/22 02:52:35;;;;;;;;;;;;;;;19.29;73.63;93067.38;2058177;69;20053;-81
2023/06/22 02:55:01;;;;;;;;;;;;;;;19.40;73.23;93059.16;2058060;69;20046;-82
2023/06/22 02:57:27;;;;;;;;;;;;;;;19.49;72.92;93067.34;2058447;69;20057;-81
2023/06/22 02:59:53;;;;;;;;;;;;;;;19.57;72.53;93066.16;2058300;69;20057;-81
2023/06/22 03:02:21;;;;;;;;;;;;;;;19.33;72.68;93061.06;2061501;69;20070;-82
2023/06/22 03:04:48;;;;;;;;;;;;;;;19.00;74.02;93054.22;2061292;69;20065;-81
2023/06/22 03:07:14;;;;;;;;;;;;;;;19.29;74.07;93063.81;2057930;69;20087;-81
2023/06/22 03:09:41;;;;;;;;;;;;;;;19.34;73.02;93062.56;2058060;69;20155;-82
2023/06/22 03:12:07;;;;;;;;;;;;;;;19.32;73.38;93061.72;2058007;69;20153;-81
2023/06/22 03:14:40;;;;;;;;;;;;;;;19.45;73.30;93055.78;2052591;69;20470;-81
2023/06/22 03:17:06;;;;;;;;;;;;;;;19.44;73.37;93071.44;2055385;69;20069;-81
2023/06/22 03:19:31;;;;;;;;;;;;;;;18.57;75.69;93074.78;2055083;69;20410;-80
2023/06/22 03:21:57;;;;;;;;;;;;;;;19.03;73.96;93075.75;2058833;69;20053;-81
2023/06/22 03:24:24;;;;;;;;;;;;;;;19.14;73.75;93073.25;2058390;69;20058;-80
2023/06/22 03:26:50;;;;;;;;;;;;;;;19.28;72.63;93062.31;2058947;69;20084;-80
2023/06/22 03:29:15;;;;;;;;;;;;;;;19.37;72.13;93075.47;2055536;69;20228;-80
2023/06/22 03:31:42;;;;;;;;;;;;;;;19.27;72.22;93063.72;2058323;69;20050;-82
2023/06/22 03:34:07;;;;;;;;;;;;;;;18.89;73.97;93075.25;2060809;69;20053;-82
2023/06/22 03:36:34;;;;;;;;;;;;;;;19.09;73.43;93077.34;2061923;69;20061;-81
2023/06/22 03:39:01;;;;;;;;;;;;;;;19.15;72.92;93075.47;2058493;69;20065;-81
2023/06/22 03:41:26;;;;;;;;;;;;;;;19.30;72.81;93060.28;2061282;69;20053;-82
2023/06/22 03:43:51;;;;;;;;;;;;;;;19.29;73.02;93072.38;2058327;69;20648;-81
2023/06/22 03:46:17;;;;;;;;;;;;;;;19.18;73.28;93082.69;2055607;69;20050;-80
2023/06/22 03:48:43;;;;;;;;;;;;;;;19.30;72.74;93073.81;2055098;69;20518;-81
2023/06/22 03:51:12;;;;;;;;;;;;;;;19.47;71.44;93070.13;2062723;69;20058;-81
2023/06/22 03:53:37;;;;;;;;;;;;;;;19.36;72.08;93070.44;2062550;69;20119;-82
2023/06/22 03:56:03;;;;;;;;;;;;;;;19.28;72.71;93068.03;2061702;69;20049;-82
2023/06/22 03:58:32;;;;;;;;;;;;;;;19.21;73.14;93055.69;2060461;69;20153;-82
2023/06/22 04:00:59;;;;;;;;;;;;;;;19.00;73.84;93070.63;2058986;69;20060;-81
2023/06/22 04:03:25;;;;;;;;;;;;;;;19.27;73.26;93063.72;2058655;69;20066;-80
2023/06/22 04:05:50;;;;;;;;;;;;;;;19.33;72.73;93061.06;2056395;69;20171;-83
2023/06/22 04:08:16;;;;;;;;;;;;;;;19.46;72.21;93068.66;2065719;69;20128;-81
2023/06/22 04:10:42;;;;;;;;;;;;;;;19.57;71.73;93060.44;2055978;69;20062;-81
2023/06/22 04:13:08;;;;;;;;;;;;;;;19.63;72.27;93046.38;2060647;69;20125;-83
2023/06/22 04:15:34;;;;;;;;;;;;;;;19.63;71.40;93060.66;2062233;69;20045;-82
2023/06/22 04:17:59;;;;;;;;;;;;;;;19.66;71.68;93051.50;2062201;69;20111;-82
2023/06/22 04:20:25;;;;;;;;;;;;;;;19.48;71.68;93051.59;2060319;69;20119;-82
2023/06/22 04:22:54;;;;;;;;;;;;;;;19.14;73.47;93053.28;2060075;69;20402;-81
2023/06/22 04:25:19;;;;;;;;;;;;;;;19.54;72.47;93056.78;2060190;69;20194;-82
2023/06/22 04:27:46;;;;;;;;;;;;;;;19.60;71.95;93051.28;2060316;69;20516;-82
2023/06/22 04:30:12;;;;;;;;;;;;;;;19.39;72.73;93052.72;2060360;69;20057;-83
2023/06/22 04:32:39;;;;;;;;;;;;;;;19.80;71.67;93051.22;2060538;69;20149;-81
2023/06/22 04:35:06;;;;;;;;;;;;;;;19.72;71.16;93048.13;2060513;69;20053;-82
2023/06/22 04:37:32;;;;;;;;;;;;;;;19.90;71.12;93045.13;2061469;69;20143;-80
2023/06/22 04:39:58;;;;;;;;;;;;;;;19.97;71.30;93032.47;2062138;69;20436;-81
2023/06/22 04:42:28;;;;;;;;;;;;;;;20.02;71.25;93031.19;2058828;69;20487;-80
2023/06/22 04:44:53;;;;;;;;;;;;;;;20.04;70.48;93031.25;2060291;69;20490;-81
2023/06/22 04:47:19;;;;;;;;;;;;;;;20.21;69.89;93038.22;2060830;69;20061;-81
2023/06/22 04:49:45;;;;;;;;;;;;;;;20.28;70.24;93031.28;2061500;69;20207;-82
2023/06/22 04:52:11;;;;;;;;;;;;;;;20.02;70.09;93034.03;2058033;69;20060;-82
2023/06/22 04:54:47;;;;;;;;;;;;;;;20.25;69.90;93026.88;2061535;69;20060;-82
2023/06/22 04:57:15;;;;;;;;;;;;;;;20.17;70.53;93033.09;2061993;69;20056;-82
2023/06/22 04:59:41;;;;;;;;;;;;;;;20.34;70.17;93033.56;2055892;69;20061;-83
2023/06/22 05:02:08;;;;;;;;;;;;;;;20.48;69.42;93043.34;2052171;69;20152;-82
2023/06/22 05:04:38;;;;;;;;;;;;;;;20.60;69.05;93036.50;2057438;69;20065;-80
2023/06/22 05:07:04;;;;;;;;;;;;;;;20.66;69.56;93039.53;2056614;69;20121;-81
2023/06/22 05:09:30;;;;;;;;;;;;;;;20.28;70.39;93063.44;2058261;69;20089;-79
2023/06/22 05:12:02;;;;;;;;;;;;;;;20.54;68.50;93062.81;2058507;69;20507;-80
2023/06/22 05:14:28;;;;;;;;;;;;;;;20.67;68.83;93063.91;2055668;69;20509;-81
2023/06/22 05:16:54;;;;;;;;;;;;;;;20.55;68.37;93059.28;2058235;69;20142;-79
2023/06/22 05:19:22;;;;;;;;;;;;;;;20.34;69.53;93056.44;2058161;69;20148;-80
2023/06/22 05:21:47;;;;;;;;;;;;;;;20.71;68.33;93059.03;2058538;69;20108;-80
2023/06/22 05:24:13;;;;;;;;;;;;;;;20.89;69.51;93055.22;2058100;69;20050;-80
2023/06/22 05:26:38;;;;;;;;;;;;;;;21.03;69.31;93053.50;2059401;69;20128;-80
2023/06/22 05:29:03;;;;;;;;;;;;;;;20.95;68.49;93056.13;2055688;69;20071;-80
2023/06/22 05:31:30;;;;;;;;;;;;;;;20.94;68.30;93053.94;2058531;69;20054;-82
2023/06/22 05:33:55;;;;;;;;;;;;;;;21.10;68.08;93053.66;2058406;69;20092;-83
2023/06/22 05:36:24;;;;;;;;;;;;;;;20.93;67.88;93049.59;2061976;69;20049;-82
2023/06/22 05:38:52;;;;;;;;;;;;;;;20.88;67.40;93045.91;2061664;69;20057;-82
2023/06/22 05:41:17;;;;;;;;;;;;;;;21.22;66.70;93054.00;2057814;69;20473;-80
2023/06/22 05:43:43;;;;;;;;;;;;;;;21.33;66.45;93052.88;2055173;69;20112;-81
2023/06/22 05:46:08;;;;;;;;;;;;;;;21.17;65.04;93058.88;2055085;69;20060;-81
2023/06/22 05:48:34;;;;;;;;;;;;;;;21.08;66.14;93054.34;2056556;69;20093;-81
2023/06/22 05:50:59;;;;;;;;;;;;;;;21.46;64.90;93063.25;2061235;69;20133;-80
2023/06/22 05:53:25;;;;;;;;;;;;;;;21.60;66.75;93056.44;2061079;69;20053;-81
2023/06/22 05:55:50;;;;;;;;;;;;;;;21.64;67.51;93056.53;2061661;69;20640;-81
2023/06/22 05:58:15;;;;;;;;;;;;;;;21.31;66.29;93053.56;2061517;69;20093;-81
2023/06/22 06:00:41;;;;;;;;;;;;;;;21.76;65.28;93060.44;2058922;69;20638;-80
2023/06/22 06:03:08;;;;;;;;;;;;;;;21.91;65.16;93052.91;2061930;69;20054;-81
2023/06/22 06:05:34;;;;;;;;;;;;;;;22.02;66.11;93042.41;2061429;69;20076;-81
2023/06/22 06:08:00;;;;;;;;;;;;;;;21.83;62.95;93029.78;2058618;69;20119;-81
2023/06/22 06:10:25;;;;;;;;;;;;;;;21.25;63.94;93041.16;2057934;69;20061;-81
2023/06/22 06:12:51;;;;;;;;;;;;;;;21.36;63.54;93037.22;2055219;69;20133;-81
2023/06/22 06:15:16;;;;;;;;;;;;;;;21.77;62.53;93038.25;2058523;69;20510;-82
2023/06/22 06:17:45;;;;;;;;;;;;;;;21.93;62.75;93021.41;2060579;69;20062;-82
2023/06/22 06:20:11;;;;;;;;;;;;;;;22.02;64.15;93022.34;2061460;69;20049;-82
2023/06/22 06:22:37;;;;;;;;;;;;;;;22.08;65.99;93017.50;2061087;69;20070;-81
2023/06/22 06:25:04;;;;;;;;;;;;;;;22.18;64.49;93025.63;2058489;69;20081;-81
2023/06/22 06:27:30;;;;;;;;;;;;;;;22.37;64.88;93023.88;2058661;69;20056;-83
2023/06/22 06:29:55;;;;;;;;;;;;;;;22.43;64.92;93026.16;2058795;69;20416;-83
2023/06/22 06:32:21;;;;;;;;;;;;;;;22.63;63.84;93020.13;2058736;69;20078;-83
2023/06/22 06:34:47;;;;;;;;;;;;;;;22.74;63.15;93028.25;2055472;69;20070;-82
2023/06/22 06:37:13;;;;;;;;;;;;;;;22.94;63.91;93022.22;2058381;69;20057;-82
2023/06/22 06:39:38;;;;;;;;;;;;;;;23.04;63.64;93025.28;2060213;69;20049;-81
2023/06/22 06:42:05;;;;;;;;;;;;;;;23.10;62.79;93016.09;2061069;69;20093;-82
2023/06/22 06:44:30;;;;;;;;;;;;;;;23.18;64.36;93013.34;2061895;69;20136;-83
2023/06/22 06:46:56;;;;;;;;;;;;;;;23.37;64.10;93010.81;2058140;69;20132;-81
2023/06/22 06:49:22;;;;;;;;;;;;;;;23.57;63.25;93014.06;2060347;69;20045;-80
2023/06/22 06:51:47;;;;;;;;;;;;;;;23.74;63.81;93012.94;2057825;69;20056;-81
2023/06/22 06:54:13;;;;;;;;;;;;;;;23.82;63.87;93012.34;2059385;69;20057;-80
2023/06/22 06:56:38;;;;;;;;;;;;;;;23.93;62.06;93011.09;2058752;69;20453;-80
2023/06/22 06:59:04;;;;;;;;;;;;;;;23.92;57.34;93015.38;2058460;69;20054;-80
2023/06/22 07:01:33;;;;;;;;;;;;;;;24.00;58.87;93012.63;2058721;69;20050;-80
2023/06/22 07:03:59;;;;;;;;;;;;;;;24.29;59.42;93004.44;2058704;69;20120;-81
2023/06/22 07:06:28;;;;;;;;;;;;;;;24.26;57.58;93005.81;2058709;69;20505;-81
2023/06/22 07:08:55;;;;;;;;;;;;;;;24.32;59.26;93003.75;2058371;69;20057;-80
2023/06/22 07:11:20;;;;;;;;;;;;;;;24.40;59.25;93008.22;2058669;69;20413;-81
2023/06/22 07:13:45;;;;;;;;;;;;;;;24.54;59.67;92986.09;2060508;69;20461;-80
2023/06/22 07:16:11;;;;;;;;;;;;;;;24.53;56.96;92984.66;2054404;69;20545;-80
2023/06/22 07:18:36;;;;;;;;;;;;;;;24.70;56.00;92996.41;2058392;69;20473;-81
2023/06/22 07:21:03;;;;;;;;;;;;;;;24.86;54.91;92996.56;2061870;69;20066;-80
2023/06/22 07:23:29;;;;;;;;;;;;;;;25.04;55.55;92990.31;2061635;69;20111;-81
2023/06/22 07:25:54;;;;;;;;;;;;;;;25.07;54.00;92983.91;2061990;69;20610;-81
2023/06/22 07:28:19;;;;;;;;;;;;;;;25.18;56.76;92999.13;2062205;69;20506;-80
2023/06/22 07:30:46;;;;;;;;;;;;;;;25.37;53.21;92997.16;2061479;69;20612;-78
2023/06/22 07:33:11;;;;;;;;;;;;;;;25.63;51.72;92990.22;2060498;69;20145;-80
2023/06/22 07:35:37;;;;;;;;;;;;;;;25.69;55.75;92981.63;2061669;69;20167;-79
2023/06/22 07:38:03;;;;;;;;;;;;;;;25.88;53.18;92977.47;2060466;69;20046;-80
2023/06/22 07:40:29;;;;;;;;;;;;;;;26.07;52.13;92969.69;2058496;69;20418;-80
2023/06/22 07:42:54;;;;;;;;;;;;;;;26.07;50.05;92961.03;2055318;69;20053;-80
2023/06/22 07:45:20;;;;;;;;;;;;;;;26.18;48.53;92953.19;2055128;69;20046;-80
2023/06/22 07:47:45;;;;;;;;;;;;;;;26.29;50.14;92946.03;2058658;69;20514;-80
2023/06/22 07:50:10;;;;;;;;;;;;;;;26.21;52.63;92943.84;2065923;69;20057;-79
2023/06/22 07:52:36;;;;;;;;;;;;;;;26.28;51.42;92956.13;2062433;69;20166;-80
2023/06/22 07:55:02;;;;;;;;;;;;;;;26.29;54.68;92951.78;2059446;69;20081;-80
2023/06/22 07:57:33;;;;;;;;;;;;;;;26.34;54.36;92961.94;2055988;69;20485;-80
2023/06/22 08:00:04;;;;;;;;;;;;;;;26.43;55.12;92957.69;2059835;69;20050;-80
2023/06/22 08:02:38;;;;;;;;;;;;;;;26.54;56.13;92953.41;2059131;69;20550;-81
2023/06/22 08:05:04;;;;;;;;;;;;;;;26.65;53.69;92959.97;2060969;69;20053;-80
2023/06/22 08:07:32;;;;;;;;;;;;;;;26.89;52.98;92967.28;2059645;69;20101;-81
2023/06/22 08:09:58;;;;;;;;;;;;;;;26.76;49.63;92955.69;2058842;69;20057;-82
2023/06/22 08:12:23;;;;;;;;;;;;;;;26.84;49.16;92952.09;2058736;69;20066;-82
2023/06/22 08:14:50;;;;;;;;;;;;;;;27.14;50.24;92956.56;2058356;69;20060;-82
2023/06/22 08:17:15;;;;;;;;;;;;;;;27.16;47.87;92960.16;2057896;69;20158;-82
2023/06/22 08:19:41;;;;;;;;;;;;;;;27.38;48.93;92944.34;2057649;69;20578;-82
2023/06/22 08:22:06;;;;;;;;;;;;;;;27.60;48.76;92935.69;2055399;69;20815;-83
2023/06/22 08:24:32;;;;;;;;;;;;;;;27.73;47.41;92930.66;2060328;69;20070;-82
2023/06/22 08:26:58;;;;;;;;;;;;;;;27.91;46.19;92933.56;2060454;69;20057;-82
2023/06/22 08:29:24;;;;;;;;;;;;;;;27.98;48.21;92931.38;2060574;69;20097;-82
2023/06/22 08:31:49;;;;;;;;;;;;;;;28.22;47.54;92936.41;2060815;69;20049;-81
2023/06/22 08:34:14;;;;;;;;;;;;;;;28.45;45.27;92929.13;2061271;69;20057;-81
2023/06/22 08:36:41;;;;;;;;;;;;;;;28.44;42.90;92935.66;2061861;69;20182;-81
2023/06/22 08:39:07;;;;;;;;;;;;;;;28.25;43.04;92932.78;2062846;69;20169;-81
2023/06/22 08:41:33;;;;;;;;;;;;;;;28.42;44.04;92929.88;2061716;69;20061;-81
2023/06/22 08:43:59;;;;;;;;;;;;;;;28.56;46.70;92916.09;2062185;69;20152;-82
2023/06/22 08:46:30;;;;;;;;;;;;;;;28.38;50.19;92912.53;2058803;69;20204;-82
2023/06/22 08:48:56;;;;;;;;;;;;;;;28.55;50.37;92920.44;2062198;69;20497;-82
2023/06/22 08:51:21;;;;;;;;;;;;;;;28.83;48.90;92930.47;2058799;69;20045;-82
2023/06/22 08:53:47;;;;;;;;;;;;;;;28.98;49.35;92920.28;2062054;69;20080;-82
2023/06/22 08:56:12;;;;;;;;;;;;;;;28.95;44.73;92927.53;2058505;69;20042;-81
2023/06/22 08:58:38;;;;;;;;;;;;;;;29.43;43.20;92922.22;2058913;69;20042;-82
2023/06/22 09:01:04;;;;;;;;;;;;;;;29.84;44.07;92913.97;2058780;69;20057;-82
2023/06/22 09:03:29;;;;;;;;;;;;;;;29.85;42.46;92916.13;2061971;69;20057;-82
2023/06/22 09:05:55;;;;;;;;;;;;;;;30.01;41.11;92915.28;2062002;69;20429;-82
2023/06/22 09:08:21;;;;;;;;;;;;;;;29.93;40.71;92920.44;2061850;69;20543;-82
2023/06/22 09:10:46;;;;;;;;;;;;;;;29.75;41.56;92922.00;2062170;69;20085;-81
2023/06/22 09:13:12;;;;;;;;;;;;;;;29.67;42.45;92919.16;2059923;69;20065;-81
2023/06/22 09:15:37;;;;;;;;;;;;;;;29.71;42.28;92913.34;2058705;69;20069;-81
2023/06/22 09:18:03;;;;;;;;;;;;;;;30.24;41.21;92909.25;2058835;69;20050;-81
2023/06/22 09:20:30;;;;;;;;;;;;;;;29.69;42.32;92895.22;2058676;69;20073;-82
2023/06/22 09:22:55;;;;;;;;;;;;;;;29.94;41.68;92901.53;2058641;69;20509;-81
2023/06/22 09:25:21;;;;;;;;;;;;;;;30.46;42.38;92899.59;2058812;69;20136;-82
2023/06/22 09:27:47;;;;;;;;;;;;;;;30.80;41.61;92898.53;2052622;69;20449;-82
2023/06/22 09:30:12;;;;;;;;;;;;;;;30.66;40.46;92895.78;2058715;69;20050;-82
2023/06/22 09:32:38;;;;;;;;;;;;;;;30.79;41.01;92891.25;2058787;69;20408;-81
2023/06/22 09:35:05;;;;;;;;;;;;;;;31.01;40.06;92890.97;2055349;69;20049;-81
2023/06/22 09:37:31;;;;;;;;;;;;;;;31.12;39.76;92877.75;2055284;69;20222;-82
2023/06/22 09:39:56;;;;;;;;;;;;;;;31.38;39.32;92878.84;2058713;69;20513;-81
2023/06/22 09:42:21;;;;;;;;;;;;;;;32.16;38.74;92881.25;2055378;69;20057;-82
2023/06/22 09:44:47;;;;;;;;;;;;;;;32.54;38.58;92876.97;2058608;69;20120;-82
2023/06/22 09:47:12;;;;;;;;;;;;;;;33.24;36.42;92872.63;2058683;69;20045;-81
2023/06/22 09:49:38;;;;;;;;;;;;;;;33.61;35.42;92863.78;2058668;69;20053;-82
2023/06/22 09:52:03;;;;;;;;;;;;;;;33.43;36.42;92875.84;2058719;69;20149;-82
2023/06/22 09:54:29;;;;;;;;;;;;;;;34.35;34.99;92875.09;2058593;69;20054;-81
2023/06/22 09:56:54;;;;;;;;;;;;;;;33.52;35.56;92853.78;2058596;69;20124;-81
2023/06/22 09:59:19;;;;;;;;;;;;;;;33.76;35.65;92858.31;2058589;69;20046;-81
2023/06/22 10:01:45;;;;;;;;;;;;;;;33.69;33.38;92851.22;2058646;69;20053;-81
2023/06/22 10:04:10;;;;;;;;;;;;;;;34.13;32.63;92843.53;2058672;69;20116;-81
2023/06/22 10:06:36;;;;;;;;;;;;;;;35.18;32.14;92841.41;2058617;69;20496;-81
2023/06/22 10:09:01;;;;;;;;;;;;;;;33.62;33.19;92838.94;2058596;69;20069;-82
2023/06/22 10:11:30;;;;;;;;;;;;;;;33.44;34.03;92836.47;2057835;69;20159;-81
2023/06/22 10:13:55;;;;;;;;;;;;;;;34.75;33.76;92839.72;2058951;69;20057;-81
2023/06/22 10:16:20;;;;;;;;;;;;;;;35.83;31.93;92840.13;2058646;69;20066;-81
2023/06/22 10:18:46;;;;;;;;;;;;;;;35.80;31.36;92838.03;2058629;69;20068;-81
2023/06/22 10:21:11;;;;;;;;;;;;;;;36.16;30.76;92835.44;2058415;69;20136;-81
2023/06/22 10:23:37;;;;;;;;;;;;;;;36.08;30.07;92828.34;2058445;69;20498;-81
2023/06/22 10:26:02;;;;;;;;;;;;;;;34.88;30.93;92826.19;2058497;69;20191;-81
2023/06/22 10:28:27;;;;;;;;;;;;;;;34.98;32.32;92820.06;2058564;69;20046;-81
2023/06/22 10:30:53;;;;;;;;;;;;;;;35.10;32.09;92819.00;2058588;69;20089;-81
2023/06/22 10:33:18;;;;;;;;;;;;;;;35.58;30.82;92810.91;2055310;69;20049;-81
2023/06/22 10:35:44;;;;;;;;;;;;;;;36.02;30.94;92813.91;2058790;69;20065;-81
2023/06/22 10:38:09;;;;;;;;;;;;;;;36.03;30.77;92821.19;2055356;69;20046;-82
2023/06/22 10:40:35;;;;;;;;;;;;;;;36.21;31.98;92816.19;2058597;69;20077;-81
2023/06/22 10:43:00;;;;;;;;;;;;;;;36.31;30.02;92807.75;2058542;69;20054;-81
2023/06/22 10:45:27;;;;;;;;;;;;;;;36.92;30.97;92807.81;2058430;69;20092;-82
2023/06/22 10:47:54;;;;;;;;;;;;;;;36.35;29.93;92818.63;2058595;69;20141;-81
2023/06/22 10:50:20;;;;;;;;;;;;;;;36.82;29.48;92811.81;2058434;69;20046;-81
2023/06/22 10:52:45;;;;;;;;;;;;;;;37.81;29.80;92805.84;2058416;69;20053;-81
2023/06/22 10:55:11;;;;;;;;;;;;;;;37.90;28.64;92806.97;2058488;69;20492;-82
2023/06/22 10:57:36;;;;;;;;;;;;;;;37.87;27.38;92799.75;2058643;69;20098;-81
2023/06/22 11:00:08;;;;;;;;;;;;;;;38.51;25.69;92789.69;2058516;69;20055;-81
2023/06/22 11:02:34;;;;;;;;;;;;;;;38.59;24.83;92798.16;2058417;69;20085;-81
2023/06/22 11:05:00;;;;;;;;;;;;;;;39.54;25.43;92795.34;2058622;69;20042;-81
2023/06/22 11:07:27;;;;;;;;;;;;;;;40.58;24.29;92799.03;2059113;69;20498;-81
2023/06/22 11:09:52;;;;;;;;;;;;;;;40.21;23.92;92784.75;2061163;69;20077;-79
2023/06/22 11:12:18;;;;;;;;;;;;;;;40.30;23.85;92779.84;2059361;69;20085;-80
2023/06/22 11:14:43;;;;;;;;;;;;;;;40.54;24.62;92784.50;2061900;69;20120;-80
2023/06/22 11:17:09;;;;;;;;;;;;;;;40.19;23.09;92773.06;2058554;69;20062;-82
2023/06/22 11:19:34;;;;;;;;;;;;;;;40.54;24.69;92766.09;2058849;69;20523;-80
2023/06/22 11:22:00;;;;;;;;;;;;;;;39.70;25.21;92754.84;2057867;69;20101;-81
2023/06/22 11:24:26;;;;;;;;;;;;;;;41.02;23.47;92759.16;2057859;69;20160;-81
2023/06/22 11:26:51;;;;;;;;;;;;;;;40.32;21.84;92750.97;2057967;69;20042;-81
2023/06/22 11:29:17;;;;;;;;;;;;;;;41.85;21.88;92748.63;2056017;69;20494;-81
2023/06/22 11:31:43;;;;;;;;;;;;;;;42.20;21.07;92746.59;2058247;69;20060;-81
2023/06/22 11:34:08;;;;;;;;;;;;;;;43.16;21.43;92746.00;2062115;69;20065;-81
2023/06/22 11:36:35;;;;;;;;;;;;;;;42.98;20.93;92742.66;2062074;69;20485;-83
2023/06/22 11:39:00;;;;;;;;;;;;;;;43.31;20.41;92737.66;2061894;69;20053;-81
2023/06/22 11:41:26;;;;;;;;;;;;;;;42.38;20.93;92738.88;2058572;69;20478;-80
2023/06/22 11:43:52;;;;;;;;;;;;;;;43.30;20.44;92728.06;2062034;69;20069;-81
2023/06/22 11:46:17;;;;;;;;;;;;;;;42.36;19.15;92721.28;2061858;69;20057;-81
2023/06/22 11:48:43;;;;;;;;;;;;;;;41.57;19.94;92718.44;2062459;69;20169;-80
2023/06/22 11:51:09;;;;;;;;;;;;;;;42.15;20.44;92721.75;2062079;69;20057;-80
2023/06/22 11:53:34;;;;;;;;;;;;;;;42.38;20.32;92713.00;2061773;69;20152;-80
2023/06/22 11:56:00;;;;;;;;;;;;;;;41.69;20.97;92714.06;2061196;69;20085;-81
2023/06/22 11:58:26;;;;;;;;;;;;;;;39.92;22.21;92699.97;2061869;69;20049;-80
2023/06/22 12:00:52;;;;;;;;;;;;;;;39.89;22.85;92703.03;2061880;69;20133;-81
2023/06/22 12:03:17;;;;;;;;;;;;;;;39.27;23.55;92695.78;2060446;69;20081;-82
2023/06/22 12:05:46;;;;;;;;;;;;;;;39.89;23.09;92691.22;2058397;69;20089;-81
2023/06/22 12:08:13;;;;;;;;;;;;;;;38.81;21.56;92689.84;2058391;69;20102;-81
2023/06/22 12:10:38;;;;;;;;;;;;;;;38.46;22.65;92697.31;2058575;69;20078;-82
2023/06/22 12:13:04;;;;;;;;;;;;;;;38.56;24.19;92688.00;2060689;69;20510;-81
2023/06/22 12:15:29;;;;;;;;;;;;;;;38.61;22.84;92677.47;2061732;69;20060;-81
2023/06/22 12:17:54;;;;;;;;;;;;;;;38.35;26.85;92678.69;2061793;69;20100;-81
2023/06/22 12:20:20;;;;;;;;;;;;;;;38.20;29.45;92680.81;2060325;69;20054;-81
2023/06/22 12:22:48;;;;;;;;;;;;;;;37.97;27.88;92678.84;2058301;69;20053;-80
2023/06/22 12:25:13;;;;;;;;;;;;;;;38.09;24.48;92663.66;2058154;69;20067;-81
2023/06/22 12:27:39;;;;;;;;;;;;;;;37.71;26.83;92654.28;2058394;69;20148;-80
2023/06/22 12:30:05;;;;;;;;;;;;;;;37.61;24.47;92667.13;2058456;69;20097;-81
2023/06/22 12:32:32;;;;;;;;;;;;;;;37.58;25.00;92665.81;2055123;69;20078;-81
2023/06/22 12:34:58;;;;;;;;;;;;;;;37.46;26.75;92669.25;2058602;69;20052;-82
2023/06/22 12:37:23;;;;;;;;;;;;;;;37.76;27.55;92663.63;2058401;69;20417;-81
2023/06/22 12:39:50;;;;;;;;;;;;;;;37.30;24.30;92655.25;2054890;69;20058;-82
2023/06/22 12:42:16;;;;;;;;;;;;;;;37.81;25.39;92650.19;2058258;69;20080;-81